PAKF

False Pass Airport

False Pass, Alaska, USA
METAR PAKF 190640Z AUTO VRB03KT 1/2SM SN FG BKN005 BKN011 OVC016 00/M02 A2972 RMK AO2 P0002 FZRANO RVRNO
Observed Flight Rules
Dec-19 @ 06:40 UTC (7 hours ago) Instrument Flight Rules
Wind Visibility Clouds Conditions
Variable at 3 knots 1/2 miles
  • Broken at 500' AGL
  • Broken at 1,100' AGL
  • Overcast at 1,600' AGL
  • Snow
  • Fog
Temperatures Readings Precipitation
Current 0°C / 32°F
Dewpoint -2°C / 28°F
Humidity 87%
Altimeter 29.72" Hg
Pressure 1006 hPa
Elevation 6
Current Rain 0.02
METAR PAKF 190640Z AUTO VRB03KT 1/2SM SN FG BKN005 BKN011 OVC016 00/M02 A2972 RMK AO2 P0002 FZRANO RVRNO
Observed Flight Rules
Dec-19 @ 06:40 UTC
(7 hours ago)
LIFR
Wind Visibility
Variable at 3 knots 1/2 miles
Clouds
  • Broken at 500' AGL
  • Broken at 1,100' AGL
  • Overcast at 1,600' AGL
Conditions
  • Snow
  • Fog
Temperature Dewpoint
0°C / 32°F -2°C / 28°F
Humidity Altimeter Pressure
87% 29.72" Hg 1006 hPa
Current Rain
0.02